Sousse, Tunisia
Current Conditions -  °F | °C
As of 8:00 AM on Saturday 01 Nov 2014 (Local Time) from DTMB Reporting Station
Broken Clouds Broken Clouds  
Wind Chill: 66°   Ceiling: 2600
Heat Index: 66°   Visibility: 5mi
Dew Point: 57°   Wind: 12mph
Humidity: 73%   Direction: 260°W
Pressure: 30.18"   Gusts: NA
Location:  35.82°N, 10.63°E
Report Text: DTMB 010700Z 26010KT 8000 SCT020 BKN026 19/14 Q1022
Loading
Personal Weather Stations






























Interactive Weather Map New forecast layout! Learn more

10-Day Weather Forecast

Advertisements
Track Severe Weather on mobile